sensor_id;sensor_type;location;lat;lon;timestamp;P1;durP1;ratioP1;P2;durP2;ratioP2
77359;SDS011;66426;51.454;7.266;2023-06-22T00:00:35;5.93;;;3.83;;
77359;SDS011;66426;51.454;7.266;2023-06-22T00:01:35;5.55;;;3.53;;
77359;SDS011;66426;51.454;7.266;2023-06-22T00:02:37;6.90;;;4.03;;
77359;SDS011;66426;51.454;7.266;2023-06-22T00:03:38;6.80;;;3.38;;
77359;SDS011;66426;51.454;7.266;2023-06-22T00:04:39;5.20;;;3.45;;
77359;SDS011;66426;51.454;7.266;2023-06-22T00:05:41;4.63;;;3.30;;
77359;SDS011;66426;51.454;7.266;2023-06-22T00:06:42;6.28;;;3.95;;
77359;SDS011;66426;51.454;7.266;2023-06-22T00:07:43;8.32;;;4.07;;
77359;SDS011;66426;51.454;7.266;2023-06-22T00:08:44;7.47;;;4.03;;
77359;SDS011;66426;51.454;7.266;2023-06-22T00:09:45;6.35;;;3.33;;
77359;SDS011;66426;51.454;7.266;2023-06-22T00:10:46;7.18;;;3.92;;
77359;SDS011;66426;51.454;7.266;2023-06-22T00:11:47;6.93;;;3.67;;
77359;SDS011;66426;51.454;7.266;2023-06-22T00:12:48;4.68;;;3.53;;
77359;SDS011;66426;51.454;7.266;2023-06-22T00:13:49;6.65;;;3.42;;
77359;SDS011;66426;51.454;7.266;2023-06-22T00:14:51;6.15;;;3.40;;
77359;SDS011;66426;51.454;7.266;2023-06-22T00:15:52;8.65;;;3.90;;
77359;SDS011;66426;51.454;7.266;2023-06-22T00:16:53;5.93;;;3.85;;
77359;SDS011;66426;51.454;7.266;2023-06-22T00:17:55;6.53;;;3.65;;
77359;SDS011;66426;51.454;7.266;2023-06-22T00:18:57;7.93;;;3.92;;
77359;SDS011;66426;51.454;7.266;2023-06-22T00:20:00;6.07;;;3.90;;
77359;SDS011;66426;51.454;7.266;2023-06-22T00:21:03;6.78;;;3.83;;
77359;SDS011;66426;51.454;7.266;2023-06-22T00:22:05;9.45;;;4.10;;
77359;SDS011;66426;51.454;7.266;2023-06-22T00:23:06;6.65;;;3.58;;
77359;SDS011;66426;51.454;7.266;2023-06-22T00:24:10;5.50;;;3.88;;
77359;SDS011;66426;51.454;7.266;2023-06-22T00:25:11;5.55;;;3.55;;
77359;SDS011;66426;51.454;7.266;2023-06-22T00:26:12;6.50;;;3.33;;
77359;SDS011;66426;51.454;7.266;2023-06-22T00:27:13;5.70;;;3.50;;
77359;SDS011;66426;51.454;7.266;2023-06-22T00:28:14;5.72;;;4.18;;
77359;SDS011;66426;51.454;7.266;2023-06-22T00:29:15;6.47;;;4.07;;
77359;SDS011;66426;51.454;7.266;2023-06-22T00:30:17;7.85;;;4.18;;
77359;SDS011;66426;51.454;7.266;2023-06-22T00:31:19;8.50;;;3.67;;
77359;SDS011;66426;51.454;7.266;2023-06-22T00:32:20;6.95;;;4.13;;
77359;SDS011;66426;51.454;7.266;2023-06-22T00:33:21;7.43;;;4.40;;
77359;SDS011;66426;51.454;7.266;2023-06-22T00:34:22;7.05;;;3.72;;
77359;SDS011;66426;51.454;7.266;2023-06-22T00:35:22;7.47;;;4.18;;
77359;SDS011;66426;51.454;7.266;2023-06-22T00:36:25;5.20;;;3.58;;
77359;SDS011;66426;51.454;7.266;2023-06-22T00:37:26;5.28;;;3.72;;
77359;SDS011;66426;51.454;7.266;2023-06-22T00:38:30;6.88;;;3.67;;
77359;SDS011;66426;51.454;7.266;2023-06-22T00:39:31;6.22;;;3.35;;
77359;SDS011;66426;51.454;7.266;2023-06-22T00:40:33;8.00;;;3.78;;
77359;SDS011;66426;51.454;7.266;2023-06-22T00:41:35;8.80;;;4.18;;
77359;SDS011;66426;51.454;7.266;2023-06-22T00:42:36;9.57;;;4.30;;
77359;SDS011;66426;51.454;7.266;2023-06-22T00:43:36;7.70;;;4.60;;
77359;SDS011;66426;51.454;7.266;2023-06-22T00:44:37;9.43;;;4.45;;
77359;SDS011;66426;51.454;7.266;2023-06-22T00:45:38;9.00;;;4.25;;
77359;SDS011;66426;51.454;7.266;2023-06-22T00:46:39;6.97;;;3.90;;
77359;SDS011;66426;51.454;7.266;2023-06-22T00:47:40;8.57;;;4.22;;
77359;SDS011;66426;51.454;7.266;2023-06-22T00:48:44;7.65;;;3.83;;
77359;SDS011;66426;51.454;7.266;2023-06-22T00:49:45;10.25;;;4.35;;
77359;SDS011;66426;51.454;7.266;2023-06-22T00:50:48;8.02;;;4.20;;
77359;SDS011;66426;51.454;7.266;2023-06-22T00:51:53;7.43;;;4.43;;
77359;SDS011;66426;51.454;7.266;2023-06-22T00:52:54;9.30;;;4.32;;
77359;SDS011;66426;51.454;7.266;2023-06-22T00:53:57;7.70;;;4.57;;
77359;SDS011;66426;51.454;7.266;2023-06-22T00:54:58;6.10;;;4.07;;
77359;SDS011;66426;51.454;7.266;2023-06-22T00:56:03;7.38;;;4.53;;
77359;SDS011;66426;51.454;7.266;2023-06-22T00:57:06;7.15;;;4.35;;
77359;SDS011;66426;51.454;7.266;2023-06-22T00:58:12;6.57;;;4.05;;
77359;SDS011;66426;51.454;7.266;2023-06-22T00:59:14;7.15;;;4.20;;
77359;SDS011;66426;51.454;7.266;2023-06-22T01:00:18;12.15;;;5.47;;
77359;SDS011;66426;51.454;7.266;2023-06-22T01:01:20;8.15;;;4.47;;
77359;SDS011;66426;51.454;7.266;2023-06-22T01:02:23;6.47;;;4.10;;
77359;SDS011;66426;51.454;7.266;2023-06-22T01:03:25;7.35;;;4.63;;
77359;SDS011;66426;51.454;7.266;2023-06-22T01:04:34;5.95;;;4.32;;
77359;SDS011;66426;51.454;7.266;2023-06-22T01:05:36;7.20;;;4.50;;
77359;SDS011;66426;51.454;7.266;2023-06-22T01:06:38;7.50;;;4.90;;
77359;SDS011;66426;51.454;7.266;2023-06-22T01:07:54;6.72;;;4.28;;
77359;SDS011;66426;51.454;7.266;2023-06-22T01:10:06;7.80;;;4.70;;
77359;SDS011;66426;51.454;7.266;2023-06-22T01:11:17;7.93;;;4.97;;
77359;SDS011;66426;51.454;7.266;2023-06-22T01:12:22;8.35;;;4.85;;
77359;SDS011;66426;51.454;7.266;2023-06-22T01:13:28;7.28;;;4.03;;
77359;SDS011;66426;51.454;7.266;2023-06-22T01:14:35;8.82;;;4.65;;
77359;SDS011;66426;51.454;7.266;2023-06-22T01:15:42;6.97;;;4.40;;
77359;SDS011;66426;51.454;7.266;2023-06-22T01:16:50;11.60;;;5.20;;
77359;SDS011;66426;51.454;7.266;2023-06-22T01:17:53;7.13;;;4.63;;
77359;SDS011;66426;51.454;7.266;2023-06-22T01:18:57;8.77;;;4.53;;
77359;SDS011;66426;51.454;7.266;2023-06-22T01:20:02;7.82;;;5.00;;
77359;SDS011;66426;51.454;7.266;2023-06-22T01:21:06;6.85;;;4.68;;
77359;SDS011;66426;51.454;7.266;2023-06-22T01:22:11;9.05;;;5.20;;
77359;SDS011;66426;51.454;7.266;2023-06-22T01:23:20;8.77;;;5.05;;
77359;SDS011;66426;51.454;7.266;2023-06-22T01:24:30;7.93;;;5.15;;
77359;SDS011;66426;51.454;7.266;2023-06-22T01:25:37;8.70;;;4.90;;
77359;SDS011;66426;51.454;7.266;2023-06-22T01:26:49;8.00;;;4.55;;
77359;SDS011;66426;51.454;7.266;2023-06-22T01:27:58;9.43;;;4.85;;
77359;SDS011;66426;51.454;7.266;2023-06-22T01:29:07;7.50;;;4.88;;
77359;SDS011;66426;51.454;7.266;2023-06-22T01:30:14;6.85;;;5.00;;
77359;SDS011;66426;51.454;7.266;2023-06-22T01:31:17;10.55;;;5.05;;
77359;SDS011;66426;51.454;7.266;2023-06-22T01:32:20;9.32;;;5.18;;
77359;SDS011;66426;51.454;7.266;2023-06-22T01:33:22;7.05;;;5.07;;
77359;SDS011;66426;51.454;7.266;2023-06-22T01:34:23;7.03;;;4.97;;
77359;SDS011;66426;51.454;7.266;2023-06-22T01:35:24;8.88;;;5.00;;
77359;SDS011;66426;51.454;7.266;2023-06-22T01:36:26;5.80;;;4.53;;
77359;SDS011;66426;51.454;7.266;2023-06-22T01:37:28;9.60;;;5.03;;
77359;SDS011;66426;51.454;7.266;2023-06-22T01:38:32;6.88;;;4.78;;
77359;SDS011;66426;51.454;7.266;2023-06-22T01:39:34;8.23;;;5.10;;
77359;SDS011;66426;51.454;7.266;2023-06-22T01:40:35;7.07;;;4.97;;
77359;SDS011;66426;51.454;7.266;2023-06-22T01:41:37;8.32;;;5.28;;
77359;SDS011;66426;51.454;7.266;2023-06-22T01:42:39;8.32;;;4.90;;
77359;SDS011;66426;51.454;7.266;2023-06-22T01:43:42;8.27;;;5.32;;
77359;SDS011;66426;51.454;7.266;2023-06-22T01:44:45;6.75;;;4.70;;
77359;SDS011;66426;51.454;7.266;2023-06-22T01:45:47;9.43;;;5.28;;
77359;SDS011;66426;51.454;7.266;2023-06-22T01:46:48;9.20;;;5.03;;
77359;SDS011;66426;51.454;7.266;2023-06-22T01:47:50;7.18;;;5.28;;
77359;SDS011;66426;51.454;7.266;2023-06-22T01:48:52;7.75;;;5.03;;
77359;SDS011;66426;51.454;7.266;2023-06-22T01:49:53;9.48;;;5.45;;
77359;SDS011;66426;51.454;7.266;2023-06-22T01:50:55;8.68;;;5.68;;
77359;SDS011;66426;51.454;7.266;2023-06-22T01:51:56;9.65;;;5.68;;
77359;SDS011;66426;51.454;7.266;2023-06-22T01:52:58;8.18;;;5.25;;
77359;SDS011;66426;51.454;7.266;2023-06-22T01:53:59;8.40;;;5.35;;
77359;SDS011;66426;51.454;7.266;2023-06-22T01:55:00;6.68;;;4.78;;
77359;SDS011;66426;51.454;7.266;2023-06-22T01:56:01;10.07;;;4.85;;
77359;SDS011;66426;51.454;7.266;2023-06-22T01:57:02;9.18;;;4.82;;
77359;SDS011;66426;51.454;7.266;2023-06-22T01:58:03;9.98;;;4.95;;
77359;SDS011;66426;51.454;7.266;2023-06-22T01:59:05;9.63;;;4.93;;
77359;SDS011;66426;51.454;7.266;2023-06-22T02:00:13;8.00;;;5.00;;
77359;SDS011;66426;51.454;7.266;2023-06-22T02:01:23;9.27;;;5.60;;
77359;SDS011;66426;51.454;7.266;2023-06-22T02:02:28;8.95;;;6.07;;
77359;SDS011;66426;51.454;7.266;2023-06-22T02:03:34;9.70;;;5.32;;
77359;SDS011;66426;51.454;7.266;2023-06-22T02:04:41;7.82;;;5.65;;
77359;SDS011;66426;51.454;7.266;2023-06-22T02:05:49;8.30;;;5.18;;
77359;SDS011;66426;51.454;7.266;2023-06-22T02:06:54;9.70;;;5.63;;
77359;SDS011;66426;51.454;7.266;2023-06-22T02:08:00;8.68;;;5.50;;
77359;SDS011;66426;51.454;7.266;2023-06-22T02:09:08;9.18;;;5.35;;
77359;SDS011;66426;51.454;7.266;2023-06-22T02:10:12;7.72;;;4.95;;
77359;SDS011;66426;51.454;7.266;2023-06-22T02:11:16;8.95;;;5.20;;
77359;SDS011;66426;51.454;7.266;2023-06-22T02:12:21;7.25;;;5.00;;
77359;SDS011;66426;51.454;7.266;2023-06-22T02:13:24;7.57;;;4.80;;
77359;SDS011;66426;51.454;7.266;2023-06-22T02:14:25;7.80;;;5.45;;
77359;SDS011;66426;51.454;7.266;2023-06-22T02:15:28;9.60;;;5.35;;
77359;SDS011;66426;51.454;7.266;2023-06-22T02:16:30;7.53;;;5.05;;
77359;SDS011;66426;51.454;7.266;2023-06-22T02:17:32;8.05;;;4.57;;
77359;SDS011;66426;51.454;7.266;2023-06-22T02:18:33;8.63;;;5.07;;
77359;SDS011;66426;51.454;7.266;2023-06-22T02:19:36;6.03;;;4.60;;
77359;SDS011;66426;51.454;7.266;2023-06-22T02:20:37;7.80;;;5.63;;
77359;SDS011;66426;51.454;7.266;2023-06-22T02:21:38;6.57;;;4.38;;
77359;SDS011;66426;51.454;7.266;2023-06-22T02:22:39;7.60;;;4.75;;
77359;SDS011;66426;51.454;7.266;2023-06-22T02:23:40;11.35;;;5.22;;
77359;SDS011;66426;51.454;7.266;2023-06-22T02:24:41;7.40;;;4.70;;
77359;SDS011;66426;51.454;7.266;2023-06-22T02:25:42;7.57;;;4.60;;
77359;SDS011;66426;51.454;7.266;2023-06-22T02:26:44;7.97;;;5.10;;
77359;SDS011;66426;51.454;7.266;2023-06-22T02:27:46;8.18;;;4.70;;
77359;SDS011;66426;51.454;7.266;2023-06-22T02:28:47;7.18;;;5.22;;
77359;SDS011;66426;51.454;7.266;2023-06-22T02:29:48;9.13;;;5.15;;
77359;SDS011;66426;51.454;7.266;2023-06-22T02:30:50;9.18;;;5.28;;
77359;SDS011;66426;51.454;7.266;2023-06-22T02:31:51;8.52;;;5.25;;
77359;SDS011;66426;51.454;7.266;2023-06-22T02:32:52;7.88;;;4.72;;
77359;SDS011;66426;51.454;7.266;2023-06-22T02:33:59;7.90;;;5.05;;
77359;SDS011;66426;51.454;7.266;2023-06-22T02:35:00;7.82;;;5.43;;
77359;SDS011;66426;51.454;7.266;2023-06-22T02:36:04;9.00;;;5.32;;
77359;SDS011;66426;51.454;7.266;2023-06-22T02:37:05;7.93;;;4.65;;
77359;SDS011;66426;51.454;7.266;2023-06-22T02:38:06;7.68;;;5.13;;
77359;SDS011;66426;51.454;7.266;2023-06-22T02:39:08;8.75;;;5.10;;
77359;SDS011;66426;51.454;7.266;2023-06-22T02:40:10;10.00;;;5.97;;
77359;SDS011;66426;51.454;7.266;2023-06-22T02:41:11;9.43;;;5.28;;
77359;SDS011;66426;51.454;7.266;2023-06-22T02:42:13;6.75;;;5.05;;
77359;SDS011;66426;51.454;7.266;2023-06-22T02:43:15;8.38;;;5.00;;
77359;SDS011;66426;51.454;7.266;2023-06-22T02:44:17;10.30;;;5.57;;
77359;SDS011;66426;51.454;7.266;2023-06-22T02:45:18;9.98;;;5.75;;
77359;SDS011;66426;51.454;7.266;2023-06-22T02:46:21;7.82;;;5.38;;
77359;SDS011;66426;51.454;7.266;2023-06-22T02:47:22;10.00;;;5.35;;
77359;SDS011;66426;51.454;7.266;2023-06-22T02:48:23;11.63;;;5.80;;
77359;SDS011;66426;51.454;7.266;2023-06-22T02:49:25;8.98;;;5.50;;
77359;SDS011;66426;51.454;7.266;2023-06-22T02:50:26;8.77;;;5.82;;
77359;SDS011;66426;51.454;7.266;2023-06-22T02:51:27;7.32;;;5.28;;
77359;SDS011;66426;51.454;7.266;2023-06-22T02:52:28;10.68;;;5.22;;
77359;SDS011;66426;51.454;7.266;2023-06-22T02:53:29;9.30;;;5.53;;
77359;SDS011;66426;51.454;7.266;2023-06-22T02:54:31;8.63;;;5.53;;
77359;SDS011;66426;51.454;7.266;2023-06-22T02:55:33;12.90;;;5.25;;
77359;SDS011;66426;51.454;7.266;2023-06-22T02:56:34;10.45;;;5.53;;
77359;SDS011;66426;51.454;7.266;2023-06-22T02:57:37;9.70;;;5.55;;
77359;SDS011;66426;51.454;7.266;2023-06-22T02:58:38;9.98;;;5.90;;
77359;SDS011;66426;51.454;7.266;2023-06-22T02:59:39;8.18;;;5.60;;
77359;SDS011;66426;51.454;7.266;2023-06-22T03:00:41;8.40;;;5.63;;
77359;SDS011;66426;51.454;7.266;2023-06-22T03:01:43;7.80;;;5.70;;
77359;SDS011;66426;51.454;7.266;2023-06-22T03:02:45;8.98;;;5.50;;
77359;SDS011;66426;51.454;7.266;2023-06-22T03:03:46;9.15;;;5.60;;
77359;SDS011;66426;51.454;7.266;2023-06-22T03:04:47;8.25;;;5.30;;
77359;SDS011;66426;51.454;7.266;2023-06-22T03:05:54;10.60;;;6.22;;
77359;SDS011;66426;51.454;7.266;2023-06-22T03:06:55;11.48;;;5.78;;
77359;SDS011;66426;51.454;7.266;2023-06-22T03:07:55;8.00;;;5.28;;
77359;SDS011;66426;51.454;7.266;2023-06-22T03:08:58;8.52;;;5.70;;
77359;SDS011;66426;51.454;7.266;2023-06-22T03:10:00;9.00;;;5.45;;
77359;SDS011;66426;51.454;7.266;2023-06-22T03:11:01;9.32;;;5.70;;
77359;SDS011;66426;51.454;7.266;2023-06-22T03:12:03;10.23;;;6.28;;
77359;SDS011;66426;51.454;7.266;2023-06-22T03:13:04;9.57;;;6.20;;
77359;SDS011;66426;51.454;7.266;2023-06-22T03:14:05;8.52;;;6.13;;
77359;SDS011;66426;51.454;7.266;2023-06-22T03:15:06;15.27;;;6.75;;
77359;SDS011;66426;51.454;7.266;2023-06-22T03:16:09;9.98;;;6.63;;
77359;SDS011;66426;51.454;7.266;2023-06-22T03:17:12;11.20;;;6.47;;
77359;SDS011;66426;51.454;7.266;2023-06-22T03:18:13;9.93;;;6.70;;
77359;SDS011;66426;51.454;7.266;2023-06-22T03:19:14;10.50;;;7.07;;
77359;SDS011;66426;51.454;7.266;2023-06-22T03:20:15;9.63;;;6.63;;
77359;SDS011;66426;51.454;7.266;2023-06-22T03:21:16;10.23;;;6.60;;
77359;SDS011;66426;51.454;7.266;2023-06-22T03:22:17;11.55;;;6.55;;
77359;SDS011;66426;51.454;7.266;2023-06-22T03:23:18;10.05;;;7.32;;
77359;SDS011;66426;51.454;7.266;2023-06-22T03:24:19;8.05;;;6.20;;
77359;SDS011;66426;51.454;7.266;2023-06-22T03:25:21;10.80;;;7.07;;
77359;SDS011;66426;51.454;7.266;2023-06-22T03:26:21;9.93;;;6.15;;
77359;SDS011;66426;51.454;7.266;2023-06-22T03:27:24;12.27;;;6.68;;
77359;SDS011;66426;51.454;7.266;2023-06-22T03:28:25;12.07;;;7.43;;
77359;SDS011;66426;51.454;7.266;2023-06-22T03:29:26;11.55;;;7.40;;
77359;SDS011;66426;51.454;7.266;2023-06-22T03:30:27;9.55;;;7.05;;
77359;SDS011;66426;51.454;7.266;2023-06-22T03:31:28;9.68;;;7.05;;
77359;SDS011;66426;51.454;7.266;2023-06-22T03:32:30;11.30;;;7.80;;
77359;SDS011;66426;51.454;7.266;2023-06-22T03:33:31;20.42;;;8.05;;
77359;SDS011;66426;51.454;7.266;2023-06-22T03:34:32;10.45;;;6.72;;
77359;SDS011;66426;51.454;7.266;2023-06-22T03:35:34;12.65;;;7.43;;
77359;SDS011;66426;51.454;7.266;2023-06-22T03:36:35;10.68;;;7.53;;
77359;SDS011;66426;51.454;7.266;2023-06-22T03:37:36;9.40;;;6.93;;
77359;SDS011;66426;51.454;7.266;2023-06-22T03:38:37;10.52;;;8.10;;
77359;SDS011;66426;51.454;7.266;2023-06-22T03:39:38;10.25;;;7.07;;
77359;SDS011;66426;51.454;7.266;2023-06-22T03:40:39;12.38;;;8.07;;
77359;SDS011;66426;51.454;7.266;2023-06-22T03:41:40;10.32;;;7.68;;
77359;SDS011;66426;51.454;7.266;2023-06-22T03:42:41;9.73;;;8.05;;
77359;SDS011;66426;51.454;7.266;2023-06-22T03:43:42;11.18;;;8.10;;
77359;SDS011;66426;51.454;7.266;2023-06-22T03:44:43;12.65;;;7.70;;
77359;SDS011;66426;51.454;7.266;2023-06-22T03:45:44;13.07;;;7.72;;
77359;SDS011;66426;51.454;7.266;2023-06-22T03:46:45;13.07;;;8.13;;
77359;SDS011;66426;51.454;7.266;2023-06-22T03:47:48;12.55;;;7.90;;
77359;SDS011;66426;51.454;7.266;2023-06-22T03:48:49;11.20;;;7.75;;
77359;SDS011;66426;51.454;7.266;2023-06-22T03:49:50;11.00;;;7.82;;
77359;SDS011;66426;51.454;7.266;2023-06-22T03:50:55;10.23;;;7.32;;
77359;SDS011;66426;51.454;7.266;2023-06-22T03:51:56;12.18;;;8.65;;
77359;SDS011;66426;51.454;7.266;2023-06-22T03:52:57;10.80;;;7.55;;
77359;SDS011;66426;51.454;7.266;2023-06-22T03:53:58;12.48;;;8.18;;
77359;SDS011;66426;51.454;7.266;2023-06-22T03:54:59;12.32;;;7.43;;
77359;SDS011;66426;51.454;7.266;2023-06-22T03:56:00;10.70;;;7.40;;
77359;SDS011;66426;51.454;7.266;2023-06-22T03:57:01;11.68;;;7.80;;
77359;SDS011;66426;51.454;7.266;2023-06-22T03:58:02;12.38;;;7.72;;
77359;SDS011;66426;51.454;7.266;2023-06-22T03:59:06;11.18;;;7.32;;
77359;SDS011;66426;51.454;7.266;2023-06-22T04:00:07;14.38;;;8.15;;
77359;SDS011;66426;51.454;7.266;2023-06-22T04:01:10;10.07;;;8.20;;
77359;SDS011;66426;51.454;7.266;2023-06-22T04:02:12;14.27;;;9.15;;
77359;SDS011;66426;51.454;7.266;2023-06-22T04:03:14;12.25;;;8.40;;
77359;SDS011;66426;51.454;7.266;2023-06-22T04:04:16;9.73;;;6.95;;
77359;SDS011;66426;51.454;7.266;2023-06-22T04:05:18;13.50;;;7.88;;
77359;SDS011;66426;51.454;7.266;2023-06-22T04:06:19;10.90;;;8.00;;
77359;SDS011;66426;51.454;7.266;2023-06-22T04:07:20;12.65;;;8.02;;
77359;SDS011;66426;51.454;7.266;2023-06-22T04:08:21;11.88;;;8.15;;
77359;SDS011;66426;51.454;7.266;2023-06-22T04:09:23;12.32;;;8.50;;
77359;SDS011;66426;51.454;7.266;2023-06-22T04:10:24;13.98;;;8.75;;
77359;SDS011;66426;51.454;7.266;2023-06-22T04:11:25;12.90;;;8.18;;
77359;SDS011;66426;51.454;7.266;2023-06-22T04:12:26;12.73;;;8.40;;
77359;SDS011;66426;51.454;7.266;2023-06-22T04:13:27;12.20;;;7.82;;
77359;SDS011;66426;51.454;7.266;2023-06-22T04:14:28;11.40;;;7.43;;
77359;SDS011;66426;51.454;7.266;2023-06-22T04:15:29;12.13;;;8.18;;
77359;SDS011;66426;51.454;7.266;2023-06-22T04:16:30;16.30;;;8.48;;
77359;SDS011;66426;51.454;7.266;2023-06-22T04:17:30;10.23;;;8.15;;
77359;SDS011;66426;51.454;7.266;2023-06-22T04:18:33;11.40;;;8.73;;
77359;SDS011;66426;51.454;7.266;2023-06-22T04:19:34;12.65;;;8.45;;
77359;SDS011;66426;51.454;7.266;2023-06-22T04:20:35;11.50;;;7.85;;
77359;SDS011;66426;51.454;7.266;2023-06-22T04:21:36;12.85;;;8.43;;
77359;SDS011;66426;51.454;7.266;2023-06-22T04:22:38;14.25;;;7.78;;
77359;SDS011;66426;51.454;7.266;2023-06-22T04:23:39;10.68;;;7.80;;
77359;SDS011;66426;51.454;7.266;2023-06-22T04:24:40;10.52;;;7.40;;
77359;SDS011;66426;51.454;7.266;2023-06-22T04:25:40;11.27;;;8.27;;
77359;SDS011;66426;51.454;7.266;2023-06-22T04:26:41;12.85;;;8.52;;
77359;SDS011;66426;51.454;7.266;2023-06-22T04:27:45;12.02;;;8.73;;
77359;SDS011;66426;51.454;7.266;2023-06-22T04:28:46;11.73;;;8.63;;
77359;SDS011;66426;51.454;7.266;2023-06-22T04:29:52;10.90;;;8.13;;
77359;SDS011;66426;51.454;7.266;2023-06-22T04:30:53;11.20;;;8.10;;
77359;SDS011;66426;51.454;7.266;2023-06-22T04:32:03;12.82;;;8.43;;
77359;SDS011;66426;51.454;7.266;2023-06-22T04:33:05;13.35;;;8.48;;
77359;SDS011;66426;51.454;7.266;2023-06-22T04:34:08;11.27;;;8.90;;
77359;SDS011;66426;51.454;7.266;2023-06-22T04:35:09;12.40;;;8.82;;
77359;SDS011;66426;51.454;7.266;2023-06-22T04:36:10;13.25;;;8.63;;
77359;SDS011;66426;51.454;7.266;2023-06-22T04:37:15;13.77;;;8.98;;
77359;SDS011;66426;51.454;7.266;2023-06-22T04:38:16;14.55;;;8.98;;
77359;SDS011;66426;51.454;7.266;2023-06-22T04:39:17;18.08;;;9.13;;
77359;SDS011;66426;51.454;7.266;2023-06-22T04:40:19;12.95;;;9.43;;
77359;SDS011;66426;51.454;7.266;2023-06-22T04:41:20;12.60;;;8.82;;
77359;SDS011;66426;51.454;7.266;2023-06-22T04:42:25;11.98;;;8.93;;
77359;SDS011;66426;51.454;7.266;2023-06-22T04:43:27;13.48;;;8.85;;
77359;SDS011;66426;51.454;7.266;2023-06-22T04:44:30;12.00;;;9.15;;
77359;SDS011;66426;51.454;7.266;2023-06-22T04:45:31;16.02;;;10.07;;
77359;SDS011;66426;51.454;7.266;2023-06-22T04:46:32;13.13;;;8.77;;
77359;SDS011;66426;51.454;7.266;2023-06-22T04:47:38;14.82;;;8.38;;
77359;SDS011;66426;51.454;7.266;2023-06-22T04:48:39;13.88;;;9.48;;
77359;SDS011;66426;51.454;7.266;2023-06-22T04:49:42;12.20;;;8.63;;
77359;SDS011;66426;51.454;7.266;2023-06-22T04:50:43;13.27;;;8.77;;
77359;SDS011;66426;51.454;7.266;2023-06-22T04:51:44;12.98;;;8.85;;
77359;SDS011;66426;51.454;7.266;2023-06-22T04:52:45;13.75;;;9.20;;
77359;SDS011;66426;51.454;7.266;2023-06-22T04:53:46;15.27;;;8.95;;
77359;SDS011;66426;51.454;7.266;2023-06-22T04:54:47;14.57;;;8.90;;
77359;SDS011;66426;51.454;7.266;2023-06-22T04:55:51;11.18;;;8.52;;
77359;SDS011;66426;51.454;7.266;2023-06-22T04:56:53;14.80;;;9.75;;
77359;SDS011;66426;51.454;7.266;2023-06-22T04:57:57;11.77;;;9.05;;
77359;SDS011;66426;51.454;7.266;2023-06-22T04:59:05;12.15;;;8.18;;
77359;SDS011;66426;51.454;7.266;2023-06-22T05:00:06;13.80;;;9.48;;
77359;SDS011;66426;51.454;7.266;2023-06-22T05:01:14;14.98;;;9.27;;
77359;SDS011;66426;51.454;7.266;2023-06-22T05:02:15;14.40;;;9.23;;
77359;SDS011;66426;51.454;7.266;2023-06-22T05:03:16;10.70;;;8.82;;
77359;SDS011;66426;51.454;7.266;2023-06-22T05:04:19;12.38;;;9.00;;
77359;SDS011;66426;51.454;7.266;2023-06-22T05:05:21;11.85;;;9.07;;
77359;SDS011;66426;51.454;7.266;2023-06-22T05:06:22;13.15;;;9.05;;
77359;SDS011;66426;51.454;7.266;2023-06-22T05:07:25;13.05;;;9.60;;
77359;SDS011;66426;51.454;7.266;2023-06-22T05:08:26;14.82;;;9.63;;
77359;SDS011;66426;51.454;7.266;2023-06-22T05:09:29;13.90;;;9.27;;
77359;SDS011;66426;51.454;7.266;2023-06-22T05:10:30;11.55;;;8.50;;
77359;SDS011;66426;51.454;7.266;2023-06-22T05:11:31;14.63;;;8.95;;
77359;SDS011;66426;51.454;7.266;2023-06-22T05:12:32;13.65;;;8.85;;
77359;SDS011;66426;51.454;7.266;2023-06-22T05:13:33;13.38;;;8.85;;
77359;SDS011;66426;51.454;7.266;2023-06-22T05:14:34;13.07;;;8.80;;
77359;SDS011;66426;51.454;7.266;2023-06-22T05:15:35;15.75;;;9.18;;
77359;SDS011;66426;51.454;7.266;2023-06-22T05:16:40;16.65;;;9.95;;
77359;SDS011;66426;51.454;7.266;2023-06-22T05:17:42;14.15;;;9.40;;
77359;SDS011;66426;51.454;7.266;2023-06-22T05:18:45;13.00;;;8.50;;
77359;SDS011;66426;51.454;7.266;2023-06-22T05:19:46;11.57;;;9.05;;
77359;SDS011;66426;51.454;7.266;2023-06-22T05:20:51;14.98;;;8.60;;
77359;SDS011;66426;51.454;7.266;2023-06-22T05:21:52;12.27;;;9.55;;
77359;SDS011;66426;51.454;7.266;2023-06-22T05:22:53;11.48;;;7.97;;
77359;SDS011;66426;51.454;7.266;2023-06-22T05:23:54;15.90;;;9.23;;
77359;SDS011;66426;51.454;7.266;2023-06-22T05:24:56;14.55;;;8.85;;
77359;SDS011;66426;51.454;7.266;2023-06-22T05:25:57;13.75;;;8.45;;
77359;SDS011;66426;51.454;7.266;2023-06-22T05:26:58;15.50;;;9.57;;
77359;SDS011;66426;51.454;7.266;2023-06-22T05:27:59;14.45;;;8.48;;
77359;SDS011;66426;51.454;7.266;2023-06-22T05:29:00;15.05;;;8.93;;
77359;SDS011;66426;51.454;7.266;2023-06-22T05:30:03;17.20;;;9.52;;
77359;SDS011;66426;51.454;7.266;2023-06-22T05:31:04;13.60;;;8.50;;
77359;SDS011;66426;51.454;7.266;2023-06-22T05:32:05;10.88;;;8.45;;
77359;SDS011;66426;51.454;7.266;2023-06-22T05:33:07;13.63;;;8.80;;
77359;SDS011;66426;51.454;7.266;2023-06-22T05:34:08;13.15;;;9.40;;
77359;SDS011;66426;51.454;7.266;2023-06-22T05:35:09;10.80;;;7.78;;
77359;SDS011;66426;51.454;7.266;2023-06-22T05:36:11;13.07;;;9.02;;
77359;SDS011;66426;51.454;7.266;2023-06-22T05:37:13;12.40;;;8.75;;
77359;SDS011;66426;51.454;7.266;2023-06-22T05:38:14;10.48;;;7.95;;
77359;SDS011;66426;51.454;7.266;2023-06-22T05:39:15;13.80;;;8.75;;
77359;SDS011;66426;51.454;7.266;2023-06-22T05:40:16;10.05;;;7.95;;
77359;SDS011;66426;51.454;7.266;2023-06-22T05:41:17;14.07;;;8.75;;
77359;SDS011;66426;51.454;7.266;2023-06-22T05:42:18;13.05;;;8.45;;
77359;SDS011;66426;51.454;7.266;2023-06-22T05:43:19;10.50;;;8.00;;
77359;SDS011;66426;51.454;7.266;2023-06-22T05:44:20;16.17;;;9.60;;
77359;SDS011;66426;51.454;7.266;2023-06-22T05:45:21;12.57;;;8.18;;
77359;SDS011;66426;51.454;7.266;2023-06-22T05:46:22;13.32;;;9.00;;
77359;SDS011;66426;51.454;7.266;2023-06-22T05:47:23;13.65;;;9.48;;
77359;SDS011;66426;51.454;7.266;2023-06-22T05:48:24;14.65;;;8.65;;
77359;SDS011;66426;51.454;7.266;2023-06-22T05:49:25;13.77;;;8.32;;
77359;SDS011;66426;51.454;7.266;2023-06-22T05:50:33;11.35;;;8.32;;
77359;SDS011;66426;51.454;7.266;2023-06-22T05:51:35;15.15;;;9.52;;
77359;SDS011;66426;51.454;7.266;2023-06-22T05:52:36;12.27;;;8.07;;
77359;SDS011;66426;51.454;7.266;2023-06-22T05:53:37;11.68;;;8.30;;
77359;SDS011;66426;51.454;7.266;2023-06-22T05:54:38;13.52;;;8.50;;
77359;SDS011;66426;51.454;7.266;2023-06-22T05:55:39;14.75;;;9.05;;
77359;SDS011;66426;51.454;7.266;2023-06-22T05:56:40;13.05;;;8.05;;
77359;SDS011;66426;51.454;7.266;2023-06-22T05:57:41;13.63;;;8.38;;
77359;SDS011;66426;51.454;7.266;2023-06-22T05:58:42;12.82;;;8.30;;
77359;SDS011;66426;51.454;7.266;2023-06-22T05:59:43;11.77;;;8.60;;
77359;SDS011;66426;51.454;7.266;2023-06-22T06:00:44;10.85;;;7.63;;
77359;SDS011;66426;51.454;7.266;2023-06-22T06:01:46;14.07;;;8.68;;
77359;SDS011;66426;51.454;7.266;2023-06-22T06:02:50;15.32;;;8.18;;
77359;SDS011;66426;51.454;7.266;2023-06-22T06:03:51;11.93;;;8.00;;
77359;SDS011;66426;51.454;7.266;2023-06-22T06:04:53;12.18;;;7.63;;
77359;SDS011;66426;51.454;7.266;2023-06-22T06:05:54;15.05;;;7.85;;
77359;SDS011;66426;51.454;7.266;2023-06-22T06:06:57;12.25;;;7.47;;
77359;SDS011;66426;51.454;7.266;2023-06-22T06:07:58;14.52;;;7.50;;
77359;SDS011;66426;51.454;7.266;2023-06-22T06:09:00;16.45;;;8.52;;
77359;SDS011;66426;51.454;7.266;2023-06-22T06:10:01;10.77;;;7.90;;
77359;SDS011;66426;51.454;7.266;2023-06-22T06:11:02;10.90;;;7.57;;
77359;SDS011;66426;51.454;7.266;2023-06-22T06:12:03;10.48;;;7.18;;
77359;SDS011;66426;51.454;7.266;2023-06-22T06:13:05;13.82;;;7.70;;